TimePDT,TemperatureF,Dew PointF,Humidity,Sea Level PressureIn,VisibilityMPH,Wind Direction,Wind SpeedMPH,Gust SpeedMPH,PrecipitationIn,Events,Conditions,WindDirDegrees,DateUTC
12:22 AM,42.8,39.2,87,29.90,10.0,ESE,6.9,-,0.00,,Overcast,120,2013-04-08 07:22:00
12:53 AM,43.0,39.9,89,29.94,10.0,SE,5.8,-,0.00,,Overcast,140,2013-04-08 07:53:00
1:53 AM,43.0,39.9,89,29.96,10.0,South,3.5,-,0.00,,Overcast,180,2013-04-08 08:53:00
2:53 AM,43.0,39.9,89,29.98,10.0,South,8.1,-,N/A,,Overcast,170,2013-04-08 09:53:00
3:53 AM,42.8,39.2,87,29.97,10.0,South,6.9,-,N/A,Rain,Light Rain,180,2013-04-08 10:53:00
4:53 AM,43.0,39.9,89,30.02,7.0,SSW,8.1,-,0.02,Rain,Light Rain,200,2013-04-08 11:53:00
5:53 AM,43.0,39.9,89,30.05,10.0,South,5.8,-,0.01,Rain,Light Rain,180,2013-04-08 12:53:00
6:53 AM,43.0,39.9,89,30.07,10.0,SE,6.9,-,0.00,,Overcast,140,2013-04-08 13:53:00
7:53 AM,44.1,41.0,89,30.10,10.0,SSE,5.8,-,N/A,,Overcast,150,2013-04-08 14:53:00
8:53 AM,45.0,42.1,90,30.11,10.0,SSE,5.8,-,N/A,,Overcast,160,2013-04-08 15:53:00
9:53 AM,46.9,42.1,83,30.13,10.0,SSW,8.1,-,N/A,,Overcast,210,2013-04-08 16:53:00
10:31 AM,48.2,44.6,87,30.11,10.0,SW,6.9,-,N/A,,Mostly Cloudy,220,2013-04-08 17:31:00
10:53 AM,48.9,42.1,77,30.15,10.0,SW,8.1,-,N/A,,Mostly Cloudy,220,2013-04-08 17:53:00
11:35 AM,51.8,42.8,71,30.13,10.0,SW,8.1,-,N/A,,Mostly Cloudy,220,2013-04-08 18:35:00
11:53 AM,52.0,42.1,69,30.16,10.0,SW,9.2,-,N/A,,Mostly Cloudy,220,2013-04-08 18:53:00
12:46 PM,53.6,42.8,67,30.15,10.0,West,8.1,-,N/A,,Mostly Cloudy,270,2013-04-08 19:46:00
12:53 PM,53.1,42.1,66,30.18,10.0,West,6.9,-,N/A,,Mostly Cloudy,260,2013-04-08 19:53:00
1:53 PM,54.0,41.0,62,30.19,10.0,South,10.4,-,N/A,,Mostly Cloudy,190,2013-04-08 20:53:00
2:53 PM,54.0,41.0,62,30.19,10.0,SW,10.4,-,N/A,,Mostly Cloudy,230,2013-04-08 21:53:00
3:53 PM,53.1,41.0,64,30.20,10.0,SW,9.2,-,N/A,,Mostly Cloudy,220,2013-04-08 22:53:00
4:53 PM,55.0,42.1,62,30.20,10.0,SW,6.9,-,N/A,,Mostly Cloudy,230,2013-04-08 23:53:00
5:53 PM,54.0,42.1,64,30.22,10.0,SW,6.9,-,N/A,,Mostly Cloudy,220,2013-04-09 00:53:00
6:53 PM,52.0,42.1,69,30.24,10.0,SSW,3.5,-,N/A,,Mostly Cloudy,210,2013-04-09 01:53:00
7:53 PM,52.0,41.0,66,30.25,10.0,WSW,4.6,-,N/A,,Overcast,240,2013-04-09 02:53:00
8:53 PM,50.0,42.1,74,30.27,10.0,SSW,5.8,-,N/A,,Mostly Cloudy,210,2013-04-09 03:53:00
9:53 PM,48.9,41.0,74,30.29,10.0,SW,5.8,-,N/A,,Scattered Clouds,220,2013-04-09 04:53:00
10:53 PM,46.9,41.0,80,30.30,10.0,South,5.8,-,N/A,,Mostly Cloudy,180,2013-04-09 05:53:00
11:53 PM,46.0,41.0,83,30.30,10.0,South,4.6,-,N/A,,Scattered Clouds,180,2013-04-09 06:53:00